Terminal Aerodrome Forecast
Issued by NWS Portland, OR

Home | Current Version | Previous Version | Text Only | Print | Product List | Glossary On
Versions: 1 2 3 4 5 6 7 8 9 10 11 12 13 14 15 16 17 18 19 20 21 22 23 24 25 26 27 28 29 30 31 32 33 34 35 36 37 38 39 40
000
FTUS46 KPQR 170528
TAFSLE
TAF
KSLE 170528Z 1706/1806 VRB03KT P6SM SKC
     FM170900 00000KT 3SM BR SCT002
     FM171200 00000KT 1/2SM FG OVC003
     FM171500 VRB03KT 5SM BR BKN006 BKN100
     FM171700 19009KT P6SM SCT007 BKN040 OVC060
     FM171900 18011KT P6SM -RA SCT010 BKN035 OVC050
     FM180100 25007KT P6SM VCSH SCT030 BKN050=

USA.gov is the U.S. government's official web portal to all federal, state and local government web resources and services.